Time;durP1;ratioP1;P1;durP2;ratioP2;P2;SDS_P1;SDS_P2;PMS_P1;PMS_P2;Temp;Humidity;BMP_temperature;BMP_pressure;BME280_temperature;BME280_humidity;BME280_pressure;Samples;Min_cycle;Max_cycle;Signal;HPM_P1;HPM_P2
2023/12/30 00:01:54;;;;;;;2.78;0.90;;;9.00;99.90;;;;;;5029398;28;20029;-83
2023/12/30 00:04:20;;;;;;;3.03;0.70;;;9.00;99.90;;;;;;5042177;28;20036;-81
2023/12/30 00:06:46;;;;;;;1.17;0.47;;;8.90;99.90;;;;;;5042078;28;20022;-81
2023/12/30 00:09:11;;;;;;;2.85;0.55;;;9.00;99.90;;;;;;5042557;28;20399;-82
2023/12/30 00:11:37;;;;;;;1.08;0.57;;;9.00;99.90;;;;;;5041524;28;20304;-78
2023/12/30 00:14:04;;;;;;;1.90;0.32;;;9.00;99.90;;;;;;5039000;28;20143;-80
2023/12/30 00:16:29;;;;;;;1.63;0.95;;;9.40;99.90;;;;;;5040076;28;20092;-78
2023/12/30 00:18:56;;;;;;;3.20;1.25;;;9.00;99.90;;;;;;5040395;28;20328;-75
2023/12/30 00:21:22;;;;;;;2.40;0.77;;;9.00;99.90;;;;;;5035135;28;20010;-80
2023/12/30 00:23:49;;;;;;;2.50;1.20;;;9.00;99.90;;;;;;5022084;28;20033;-79
2023/12/30 00:26:44;;;;;;;0.90;0.73;;;8.90;99.90;;;;;;5038768;28;20301;-79
2023/12/30 00:29:11;;;;;;;4.43;1.20;;;8.90;99.90;;;;;;5022629;28;20053;-80
2023/12/30 00:31:37;;;;;;;7.72;2.05;;;8.80;99.90;;;;;;5040393;28;20029;-79
2023/12/30 00:34:03;;;;;;;0.68;0.60;;;8.80;99.90;;;;;;5040187;28;20036;-79
2023/12/30 00:36:29;;;;;;;1.33;0.45;;;8.90;99.90;;;;;;5039771;28;20057;-79
2023/12/30 00:38:55;;;;;;;2.30;0.60;;;8.80;99.90;;;;;;5039342;28;20071;-79
2023/12/30 00:41:24;;;;;;;1.02;0.70;;;8.80;99.90;;;;;;5039957;28;20244;-79
2023/12/30 00:43:50;;;;;;;0.40;0.40;;;8.80;99.90;;;;;;5040421;28;20028;-79
2023/12/30 00:46:19;;;;;;;0.80;0.70;;;8.80;99.90;;;;;;5040082;28;20022;-80
2023/12/30 00:48:45;;;;;;;0.60;0.60;;;8.70;99.90;;;;;;5022754;28;20025;-78
2023/12/30 00:51:10;;;;;;;1.10;1.00;;;8.60;99.90;;;;;;5039938;28;20044;-78
2023/12/30 00:53:37;;;;;;;4.22;0.90;;;8.50;99.90;;;;;;5038480;28;20025;-75
2023/12/30 00:56:03;;;;;;;2.00;1.20;;;8.40;99.90;;;;;;5040066;28;20049;-80
2023/12/30 00:58:29;;;;;;;2.95;0.63;;;8.40;99.90;;;;;;5039681;28;20071;-81
2023/12/30 01:00:55;;;;;;;1.55;0.80;;;8.30;99.90;;;;;;5040534;28;20317;-79
2023/12/30 01:03:20;;;;;;;3.88;1.02;;;8.30;99.90;;;;;;5039127;28;20052;-79
2023/12/30 01:05:47;;;;;;;3.35;1.70;;;8.20;99.90;;;;;;5039541;28;20341;-81
2023/12/30 01:08:12;;;;;;;1.85;0.82;;;8.20;99.90;;;;;;5040068;28;20018;-79
2023/12/30 01:10:38;;;;;;;3.22;1.20;;;8.20;99.90;;;;;;5040318;28;20037;-80
2023/12/30 01:13:08;;;;;;;2.28;0.88;;;8.20;99.90;;;;;;5039910;28;20044;-79
2023/12/30 01:15:34;;;;;;;;;;;8.10;99.90;;;;;;5019916;28;20022;-81
2023/12/30 01:18:01;;;;;;;1.65;0.68;;;8.10;99.90;;;;;;5020207;28;20150;-79
2023/12/30 01:20:27;;;;;;;5.57;1.70;;;7.70;99.90;;;;;;5019457;28;20322;-77
2023/12/30 01:22:53;;;;;;;4.82;1.08;;;8.10;99.90;;;;;;5019194;28;20037;-78
2023/12/30 01:26:07;;;;;;;;;;;;;;;;;;;;;
2023/12/30 01:33:29;;;;;;;4.82;1.30;;;8.00;99.90;;;;;;5000288;28;20048;-79
2023/12/30 01:35:33;;;;;;;1.73;1.15;;;7.90;99.90;;;;;;4959510;28;20028;-78
2023/12/30 01:38:36;;;;;;;3.30;1.07;;;8.60;99.90;;;;;;5002473;28;20026;-79
2023/12/30 01:50:57;;;;;;;;;;;;;;;;;;;;;
2023/12/30 02:37:26;;;;;;;2.63;1.70;;;7.70;99.90;;;;;;4982006;28;20061;-77
2023/12/30 02:43:48;;;;;;;4.32;1.90;;;8.00;99.90;;;;;;4946943;28;20051;-77
2023/12/30 02:46:42;;;;;;;2.33;1.95;;;8.10;99.90;;;;;;4922689;29;20039;-77
2023/12/30 02:56:22;;;;;;;5.05;1.70;;;8.50;99.90;;;;;;4922531;29;20067;-78
2023/12/30 03:05:34;;;;;;;;;;;;;;;;;;;;;
2023/12/30 03:18:26;;;;;;;3.60;1.90;;;9.30;99.90;;;;;;4960078;28;20046;-75
2023/12/30 03:31:49;;;;;;;1.52;1.42;;;9.40;99.90;;;;;;4898704;29;20305;-78
2023/12/30 03:37:50;;;;;;;9.65;1.90;;;9.30;99.90;;;;;;4826894;29;20087;-78
2023/12/30 03:40:24;;;;;;;3.53;1.48;;;9.20;99.90;;;;;;4827558;29;20091;-76
2023/12/30 04:49:40;;;;;;;4.47;1.10;;;8.60;99.90;;;;;;4925197;29;20055;-77
2023/12/30 04:52:09;;;;;;;1.50;1.40;;;8.60;99.90;;;;;;4846279;29;20046;-77
2023/12/30 04:54:37;;;;;;;1.30;1.00;;;8.60;99.90;;;;;;4951936;28;20333;-77
2023/12/30 05:00:14;;;;;;;2.35;1.10;;;8.50;99.90;;;;;;5018982;28;20344;-77
2023/12/30 05:02:40;;;;;;;;;;;8.40;99.90;;;;;;5002304;28;20017;-77
2023/12/30 05:09:05;;;;;;;1.15;1.00;;;8.40;99.90;;;;;;4939435;29;20042;-78
2023/12/30 05:14:55;;;;;;;1.52;1.40;;;8.20;99.90;;;;;;4961562;29;20042;-76
2023/12/30 05:18:19;;;;;;;4.28;1.50;;;8.00;99.90;;;;;;4958479;29;20035;-77
2023/12/30 05:21:10;;;;;;;1.25;1.10;;;8.00;99.90;;;;;;4884269;29;20029;-79
2023/12/30 05:23:36;;;;;;;4.00;1.88;;;7.80;99.90;;;;;;4896331;29;20202;-75
2023/12/30 05:26:01;;;;;;;2.42;1.25;;;7.80;99.90;;;;;;4985171;28;20068;-78
2023/12/30 05:28:27;;;;;;;1.67;1.10;;;7.80;99.90;;;;;;5024333;28;20080;-75
2023/12/30 05:31:19;;;;;;;3.53;1.42;;;7.80;99.90;;;;;;5024432;28;20247;-77
2023/12/30 05:33:50;;;;;;;1.52;1.08;;;7.80;99.90;;;;;;5023045;28;20255;-78
2023/12/30 05:36:16;;;;;;;1.98;1.02;;;7.80;99.90;;;;;;5024141;28;20045;-77
2023/12/30 05:42:24;;;;;;;0.98;0.98;;;7.80;99.90;;;;;;5020492;28;20037;-78
2023/12/30 05:55:52;;;;;;;3.03;1.58;;;7.00;99.90;;;;;;4886538;29;20086;-76
2023/12/30 05:58:34;;;;;;;2.63;1.80;;;6.70;99.90;;;;;;4895246;29;20048;-77
2023/12/30 06:04:03;;;;;;;3.63;3.28;;;6.40;99.90;;;;;;4923453;29;20051;-78
2023/12/30 06:06:29;;;;;;;14.10;6.68;;;6.20;99.90;;;;;;4923787;29;20378;-78
2023/12/30 06:08:54;;;;;;;12.50;6.70;;;6.20;99.90;;;;;;4954718;28;20321;-77
2023/12/30 06:11:20;;;;;;;8.63;4.63;;;6.10;99.90;;;;;;5021974;28;20203;-78
2023/12/30 06:13:55;;;;;;;7.57;5.45;;;5.80;99.90;;;;;;5020711;28;20049;-78
2023/12/30 06:16:20;;;;;;;9.73;4.43;;;5.60;99.90;;;;;;5033619;28;20420;-78
2023/12/30 06:18:46;;;;;;;6.65;4.88;;;5.60;99.90;;;;;;5042331;28;20021;-77
2023/12/30 06:21:25;;;;;;;8.65;3.97;;;5.50;99.90;;;;;;5042208;28;20067;-78
2023/12/30 06:30:16;;;;;;;5.15;3.80;;;5.00;99.90;;;;;;5003058;28;20044;-77
2023/12/30 06:32:41;;;;;;;3.95;2.65;;;4.80;99.90;;;;;;5041803;28;20094;-77
2023/12/30 06:35:07;;;;;;;3.95;2.80;;;4.70;99.90;;;;;;5023878;28;20018;-78
2023/12/30 06:37:36;;;;;;;6.43;2.92;;;4.60;99.90;;;;;;5041760;28;20030;-78
2023/12/30 06:40:02;;;;;;;8.80;4.72;;;4.50;99.90;;;;;;5039457;28;20071;-77
2023/12/30 06:42:28;;;;;;;5.47;3.50;;;4.40;99.90;;;;;;5042132;28;20024;-78
2023/12/30 06:44:53;;;;;;;3.40;2.47;;;4.30;99.90;;;;;;5040641;28;20242;-78
2023/12/30 06:47:19;;;;;;;5.85;3.67;;;4.30;99.90;;;;;;5042759;28;20245;-77
2023/12/30 06:49:45;;;;;;;5.22;2.92;;;4.20;99.90;;;;;;5041115;28;20028;-79
2023/12/30 06:52:10;;;;;;;4.10;3.00;;;4.10;99.90;;;;;;5023972;28;20079;-77
2023/12/30 06:54:36;;;;;;;5.90;3.10;;;4.20;99.90;;;;;;5023589;28;20111;-78
2023/12/30 06:57:02;;;;;;;5.20;3.05;;;4.00;99.90;;;;;;5023166;28;20104;-78
2023/12/30 06:59:28;;;;;;;6.90;3.85;;;4.00;99.90;;;;;;5039883;28;20250;-77
2023/12/30 07:01:53;;;;;;;4.35;3.58;;;4.00;99.90;;;;;;5041895;28;20080;-78
2023/12/30 07:04:20;;;;;;;2.17;1.98;;;4.00;99.90;;;;;;5040203;28;20186;-78
2023/12/30 07:06:46;;;;;;;4.28;2.60;;;3.80;99.90;;;;;;5041322;28;20020;-77
2023/12/30 07:09:12;;;;;;;8.40;2.53;;;3.80;99.90;;;;;;5039301;28;20033;-78
2023/12/30 07:11:38;;;;;;;3.25;2.20;;;3.80;99.90;;;;;;5041109;28;20203;-78
2023/12/30 07:14:03;;;;;;;3.30;2.67;;;3.90;99.90;;;;;;5041389;28;20026;-79
2023/12/30 07:16:29;;;;;;;5.50;1.67;;;3.90;99.90;;;;;;5040703;28;20021;-78
2023/12/30 07:18:55;;;;;;;2.88;2.38;;;3.90;99.90;;;;;;5041518;28;20351;-78
2023/12/30 07:21:21;;;;;;;2.53;1.90;;;3.80;99.90;;;;;;5040597;28;20021;-78
2023/12/30 07:23:46;;;;;;;3.45;1.90;;;3.70;99.90;;;;;;5040751;28;20048;-79
2023/12/30 07:26:50;;;;;;;2.45;1.25;;;3.60;99.90;;;;;;5041087;28;20202;-78
2023/12/30 07:36:06;;;;;;;1.40;1.30;;;3.50;99.90;;;;;;4968617;28;20072;-78
2023/12/30 07:38:32;;;;;;;2.13;1.00;;;3.40;99.90;;;;;;5046030;28;20029;-78
2023/12/30 07:40:58;;;;;;;1.88;1.23;;;3.40;99.90;;;;;;5045435;28;20029;-79
2023/12/30 07:43:24;;;;;;;3.53;2.03;;;3.40;99.90;;;;;;5040459;28;20039;-78
2023/12/30 07:45:50;;;;;;;5.25;2.33;;;3.30;99.90;;;;;;5040084;28;20313;-76
2023/12/30 07:48:16;;;;;;;15.98;5.47;;;3.20;99.90;;;;;;5040769;28;20017;-78
2023/12/30 07:50:41;;;;;;;5.07;2.95;;;3.20;99.90;;;;;;5040561;28;20021;-78
2023/12/30 07:53:08;;;;;;;7.82;5.35;;;3.10;99.90;;;;;;5039497;28;20048;-78
2023/12/30 07:55:34;;;;;;;10.43;6.07;;;3.10;99.90;;;;;;5038587;28;20022;-77
2023/12/30 07:58:00;;;;;;;4.45;3.33;;;3.20;99.90;;;;;;5039973;28;20071;-76
2023/12/30 08:00:26;;;;;;;7.60;3.10;;;3.20;99.90;;;;;;5040811;28;20089;-77
2023/12/30 08:02:52;;;;;;;2.25;2.00;;;3.10;99.90;;;;;;5041065;28;20032;-77
2023/12/30 08:05:18;;;;;;;4.07;3.33;;;3.10;99.90;;;;;;5040089;28;20025;-79
2023/12/30 08:07:43;;;;;;;6.57;4.30;;;3.10;99.90;;;;;;5022481;28;20433;-78
2023/12/30 08:10:11;;;;;;;9.35;4.82;;;3.10;99.90;;;;;;5039379;28;20025;-79
2023/12/30 08:12:38;;;;;;;10.27;5.53;;;3.10;99.90;;;;;;5040136;28;20049;-77
2023/12/30 08:15:04;;;;;;;2.00;1.80;;;3.20;99.90;;;;;;5038612;28;20029;-78
2023/12/30 08:17:30;;;;;;;2.75;1.75;;;3.30;99.90;;;;;;5035684;28;20104;-78
2023/12/30 08:19:57;;;;;;;3.92;2.35;;;3.40;99.90;;;;;;5020265;28;20034;-76
2023/12/30 08:22:23;;;;;;;2.67;1.60;;;3.50;99.90;;;;;;5020201;28;20190;-78
2023/12/30 08:24:50;;;;;;;3.92;1.67;;;3.60;99.90;;;;;;5035170;28;20021;-78
2023/12/30 08:27:16;;;;;;;2.40;1.98;;;3.60;99.90;;;;;;5020374;28;20018;-78
2023/12/30 08:29:42;;;;;;;6.25;2.55;;;3.60;99.90;;;;;;5019366;28;20037;-77
2023/12/30 08:32:08;;;;;;;2.58;2.33;;;3.60;99.90;;;;;;5017865;28;20056;-76
2023/12/30 08:34:33;;;;;;;5.00;2.80;;;3.60;99.90;;;;;;5019743;28;20421;-77
2023/12/30 08:37:00;;;;;;;8.23;4.40;;;3.60;99.90;;;;;;5019763;28;20093;-78
2023/12/30 08:39:26;;;;;;;24.17;13.13;;;3.60;99.90;;;;;;5019898;28;20022;-75
2023/12/30 08:41:52;;;;;;;5.50;4.20;;;3.60;99.90;;;;;;5018410;28;20025;-77
2023/12/30 08:44:17;;;;;;;10.90;7.43;;;3.80;99.90;;;;;;5019931;28;20116;-78
2023/12/30 08:46:43;;;;;;;6.60;5.22;;;3.90;99.90;;;;;;5018790;28;20183;-77
2023/12/30 08:49:09;;;;;;;3.05;2.63;;;4.00;99.90;;;;;;5019331;28;20030;-75
2023/12/30 08:51:34;;;;;;;12.88;8.27;;;4.10;99.90;;;;;;5020791;28;20033;-78
2023/12/30 08:54:00;;;;;;;15.48;11.10;;;4.20;99.90;;;;;;5039432;28;20037;-77
2023/12/30 08:56:32;;;;;;;11.25;8.95;;;4.30;99.90;;;;;;5039205;28;20044;-76
2023/12/30 08:58:57;;;;;;;6.28;3.97;;;4.30;99.90;;;;;;5039803;28;20084;-74
2023/12/30 09:01:23;;;;;;;2.65;1.75;;;4.30;99.90;;;;;;5039722;28;20021;-77
2023/12/30 09:03:49;;;;;;;7.88;6.47;;;4.50;99.90;;;;;;5037474;28;20071;-77
2023/12/30 09:06:17;;;;;;;8.60;4.80;;;4.70;99.90;;;;;;5039142;28;20025;-77
2023/12/30 09:09:08;;;;;;;27.00;18.73;;;4.90;99.90;;;;;;5039103;28;20052;-77
2023/12/30 09:25:01;;;;;;;14.27;8.43;;;5.70;99.90;;;;;;4882618;29;20044;-79
2023/12/30 09:55:36;;;;;;;10.10;4.18;;;7.20;99.90;;;;;;4726025;30;20073;-78
2023/12/30 10:16:33;;;;;;;4.15;2.10;;;8.20;99.90;;;;;;4799278;29;20027;-80
2023/12/30 10:22:37;;;;;;;1.98;1.30;;;8.30;99.90;;;;;;4847257;29;20057;-78
2023/12/30 10:25:03;;;;;;;2.40;1.52;;;8.60;99.90;;;;;;4847224;29;20046;-79
2023/12/30 10:27:29;;;;;;;1.95;1.45;;;9.80;99.90;;;;;;4853483;29;20033;-80
2023/12/30 10:29:55;;;;;;;1.65;1.55;;;8.80;99.90;;;;;;4961108;28;20120;-79
2023/12/30 10:32:21;;;;;;;2.53;1.58;;;8.90;99.90;;;;;;5001633;28;20041;-79
2023/12/30 10:34:47;;;;;;;2.97;1.30;;;8.90;99.90;;;;;;5020662;28;20284;-80
2023/12/30 10:37:14;;;;;;;1.73;1.27;;;9.10;99.90;;;;;;4997194;28;20029;-78
2023/12/30 10:39:41;;;;;;;2.15;1.52;;;9.20;99.90;;;;;;5017086;28;20530;-79
2023/12/30 10:42:07;;;;;;;1.95;1.20;;;9.30;99.90;;;;;;5005300;28;20030;-78
2023/12/30 10:44:33;;;;;;;2.15;1.95;;;9.30;99.90;;;;;;5011519;28;20332;-79
2023/12/30 10:50:25;;;;;;;1.35;1.20;;;9.30;99.90;;;;;;4998087;28;20103;-78
2023/12/30 10:53:01;;;;;;;3.08;1.67;;;9.40;99.90;;;;;;5018165;28;20330;-78
2023/12/30 10:55:35;;;;;;;2.30;1.85;;;9.40;99.90;;;;;;5020686;28;20105;-78
2023/12/30 11:56:32;;;;;;;1.40;1.20;;;10.40;99.90;;;;;;4998958;28;20049;-79
2023/12/30 11:59:01;;;;;;;4.20;1.70;;;10.40;99.90;;;;;;4997821;28;20019;-77
2023/12/30 12:01:30;;;;;;;1.63;1.13;;;10.50;99.90;;;;;;4978514;28;20030;-79
2023/12/30 12:04:40;;;;;;;2.15;1.58;;;10.50;99.90;;;;;;4978833;28;20031;-79
2023/12/30 12:07:10;;;;;;;1.48;1.25;;;10.50;99.90;;;;;;4992920;28;20077;-79
2023/12/30 12:10:23;;;;;;;3.90;1.63;;;10.60;99.90;;;;;;4997948;28;20041;-79
2023/12/30 12:16:07;;;;;;;3.38;1.80;;;10.80;99.90;;;;;;4994097;28;20034;-76
2023/12/30 13:20:28;;;;;;;2.70;1.58;;;11.50;99.90;;;;;;4782542;30;20074;-80
2023/12/30 13:22:57;;;;;;;3.95;2.50;;;11.90;99.90;;;;;;4789316;29;20171;-78
2023/12/30 13:25:27;;;;;;;1.77;1.67;;;12.80;99.90;;;;;;4846796;29;20538;-76
2023/12/30 13:27:54;;;;;;;2.38;1.73;;;14.10;97.10;;;;;;4936422;28;20085;-78
2023/12/30 13:30:22;;;;;;;2.42;1.45;;;15.00;93.20;;;;;;5004719;28;20034;-80
2023/12/30 13:32:55;;;;;;;2.42;1.27;;;15.80;88.60;;;;;;4989952;28;20042;-79
2023/12/30 13:35:22;;;;;;;1.50;1.40;;;16.20;82.00;;;;;;5019235;28;20087;-78
2023/12/30 13:37:48;;;;;;;1.90;1.10;;;16.40;79.90;;;;;;5032783;28;20030;-78
2023/12/30 13:40:14;;;;;;;1.42;1.33;;;16.40;78.00;;;;;;5031208;28;20564;-78
2023/12/30 13:42:40;;;;;;;1.42;1.10;;;17.00;76.30;;;;;;5031929;28;20025;-78
2023/12/30 13:45:09;;;;;;;1.83;1.45;;;17.80;74.80;;;;;;5029466;28;20389;-78
2023/12/30 13:50:31;;;;;;;1.38;1.08;;;17.20;72.00;;;;;;5037738;28;20068;-79
2023/12/30 13:53:01;;;;;;;2.03;1.08;;;16.70;73.10;;;;;;5012695;28;20033;-79
2023/12/30 13:55:34;;;;;;;2.97;1.50;;;16.00;74.30;;;;;;5012999;28;20421;-79
2023/12/30 13:58:10;;;;;;;1.35;1.10;;;15.10;77.00;;;;;;5031305;28;20112;-78
2023/12/30 14:00:51;;;;;;;1.67;1.38;;;14.40;79.70;;;;;;5030783;28;20021;-77
2023/12/30 14:21:57;;;;;;;1.52;1.40;;;12.30;88.40;;;;;;4838948;29;20105;-78
2023/12/30 14:55:31;;;;;;;2.42;1.00;;;10.00;99.90;;;;;;4912100;29;20066;-79
2023/12/30 15:42:56;;;;;;;2.35;1.27;;;7.00;99.90;;;;;;4949207;29;20033;-77
2023/12/30 15:52:39;;;;;;;2.13;1.60;;;6.40;99.90;;;;;;4912260;29;20139;-78
2023/12/30 15:58:10;;;;;;;2.30;1.80;;;6.30;99.90;;;;;;4893494;29;20243;-76
2023/12/30 16:01:01;;;;;;;3.53;1.80;;;6.10;99.90;;;;;;4927515;29;20118;-75
2023/12/30 16:21:06;;;;;;;2.60;1.33;;;5.40;99.90;;;;;;4877153;29;20343;-79
2023/12/30 16:23:31;;;;;;;1.97;1.80;;;5.30;99.90;;;;;;4926831;29;20027;-77
2023/12/30 16:26:31;;;;;;;12.52;6.22;;;5.40;99.90;;;;;;4960970;28;20030;-76
2023/12/30 16:32:47;;;;;;;3.35;2.88;;;5.20;99.90;;;;;;4985899;28;20049;-77
2023/12/30 16:35:16;;;;;;;8.18;4.05;;;5.20;99.90;;;;;;4989268;28;20030;-80
2023/12/30 16:42:29;;;;;;;5.88;3.28;;;5.00;99.90;;;;;;4911597;29;20035;-80
2023/12/30 16:45:27;;;;;;;5.68;2.65;;;4.90;99.90;;;;;;4910596;28;20095;-78
2023/12/30 16:48:00;;;;;;;80.35;39.60;;;4.80;99.90;;;;;;5022824;28;20047;-78
2023/12/30 16:50:26;;;;;;;11.85;5.40;;;4.80;99.90;;;;;;5023985;28;20041;-76
2023/12/30 16:52:53;;;;;;;14.40;6.90;;;4.80;99.90;;;;;;5008234;28;20048;-76
2023/12/30 16:55:20;;;;;;;18.20;8.10;;;4.90;99.90;;;;;;5015318;28;20022;-81
2023/12/30 16:57:45;;;;;;;20.35;8.25;;;5.00;99.90;;;;;;5007864;28;20124;-76
2023/12/30 17:00:50;;;;;;;12.48;6.40;;;4.90;99.90;;;;;;5027847;28;20041;-78
2023/12/30 17:04:03;;;;;;;6.72;3.50;;;4.80;99.90;;;;;;5022712;28;20546;-75
2023/12/30 17:06:03;;;;;;;15.10;6.18;;;4.70;99.90;;;;;;5024344;28;20543;-77
2023/12/30 17:08:48;;;;;;;14.35;6.05;;;4.70;99.90;;;;;;5019876;28;20086;-82
2023/12/30 17:11:14;;;;;;;8.57;4.75;;;4.70;99.90;;;;;;5031000;28;20017;-75
2023/12/30 17:13:40;;;;;;;8.90;3.58;;;4.70;99.90;;;;;;5014305;28;20050;-76
2023/12/30 17:16:06;;;;;;;6.50;3.40;;;4.80;99.90;;;;;;5026999;28;20053;-75
2023/12/30 17:18:32;;;;;;;9.02;4.38;;;4.70;99.90;;;;;;5026812;28;20038;-75
2023/12/30 17:20:57;;;;;;;9.30;4.07;;;4.60;99.90;;;;;;5036464;28;20021;-81
2023/12/30 17:23:23;;;;;;;12.30;4.72;;;4.60;99.90;;;;;;5018398;28;20350;-79
2023/12/30 17:25:49;;;;;;;5.88;3.45;;;4.60;99.90;;;;;;5038857;28;20439;-78
2023/12/30 17:28:15;;;;;;;5.35;3.28;;;4.40;99.90;;;;;;5034447;28;20229;-79
2023/12/30 17:30:40;;;;;;;4.78;3.28;;;4.40;99.90;;;;;;5005077;28;20371;-76
2023/12/30 17:33:06;;;;;;;8.05;4.55;;;4.50;99.90;;;;;;5024656;28;20126;-80
2023/12/30 17:35:33;;;;;;;6.22;3.03;;;4.50;99.90;;;;;;5031423;28;20021;-81
2023/12/30 17:37:59;;;;;;;7.03;3.83;;;4.50;99.90;;;;;;5040174;28;20041;-82
2023/12/30 17:40:24;;;;;;;7.78;3.10;;;4.50;99.90;;;;;;5027929;28;20034;-77
2023/12/30 17:42:50;;;;;;;4.75;2.85;;;4.40;99.90;;;;;;5022487;28;20030;-77
2023/12/30 17:45:16;;;;;;;5.55;2.63;;;4.20;99.90;;;;;;5021382;28;20072;-82
2023/12/30 17:47:42;;;;;;;4.75;2.33;;;4.10;99.90;;;;;;5015530;28;20060;-82
2023/12/30 17:50:08;;;;;;;3.85;2.38;;;3.90;99.90;;;;;;5017250;28;20029;-80
2023/12/30 17:52:37;;;;;;;4.97;3.13;;;3.80;99.90;;;;;;5016247;28;20065;-81
2023/12/30 17:55:04;;;;;;;4.90;3.13;;;3.70;99.90;;;;;;5015702;28;20029;-80
2023/12/30 17:57:30;;;;;;;3.28;2.72;;;3.60;99.90;;;;;;5023195;28;20489;-83
2023/12/30 17:59:55;;;;;;;5.22;3.40;;;3.50;99.90;;;;;;5003892;28;20022;-82
2023/12/30 18:02:21;;;;;;;4.68;3.30;;;3.60;99.90;;;;;;5005060;28;20022;-82
2023/12/30 18:04:47;;;;;;;4.55;2.80;;;3.40;99.90;;;;;;4997770;28;20026;-81
2023/12/30 18:07:14;;;;;;;4.10;2.28;;;3.30;99.90;;;;;;4996929;28;20029;-82
2023/12/30 18:09:40;;;;;;;3.80;2.65;;;3.20;99.90;;;;;;5003620;28;20048;-79
2023/12/30 18:12:05;;;;;;;4.45;3.03;;;3.20;99.90;;;;;;5004880;28;20395;-80
2023/12/30 18:14:31;;;;;;;5.18;2.80;;;3.40;99.90;;;;;;5017476;28;20167;-81
2023/12/30 18:16:57;;;;;;;4.38;3.28;;;3.40;99.90;;;;;;5022436;28;20026;-83
2023/12/30 18:19:23;;;;;;;6.63;4.47;;;3.40;99.90;;;;;;5023597;28;20104;-79
2023/12/30 18:21:49;;;;;;;5.07;4.05;;;3.30;99.90;;;;;;5015547;28;20064;-80
2023/12/30 18:24:15;;;;;;;9.45;5.13;;;3.30;99.90;;;;;;5015691;28;20120;-79
2023/12/30 18:26:41;;;;;;;6.00;4.05;;;3.30;99.90;;;;;;5010468;28;20033;-79
2023/12/30 18:29:08;;;;;;;4.95;3.78;;;3.20;99.90;;;;;;5015984;28;20037;-75
2023/12/30 18:31:33;;;;;;;5.20;2.92;;;3.10;99.90;;;;;;5023655;28;20028;-82
2023/12/30 18:33:59;;;;;;;6.40;3.22;;;3.10;99.90;;;;;;5029282;28;20086;-84
2023/12/30 18:36:25;;;;;;;4.03;2.55;;;3.20;99.90;;;;;;5009035;28;20491;-82
2023/12/30 18:38:51;;;;;;;7.20;3.50;;;3.20;99.90;;;;;;5019745;28;20104;-83
2023/12/30 18:41:16;;;;;;;6.50;3.88;;;3.20;99.90;;;;;;5024557;28;20036;-78
2023/12/30 18:43:42;;;;;;;3.70;2.90;;;3.10;99.90;;;;;;5027698;28;20025;-82
2023/12/30 18:46:08;;;;;;;6.05;3.88;;;3.00;99.90;;;;;;5040764;28;20063;-76
2023/12/30 18:48:33;;;;;;;3.67;3.17;;;3.00;99.90;;;;;;5042822;28;20075;-75
2023/12/30 18:50:59;;;;;;;5.13;2.60;;;2.80;99.90;;;;;;5042418;28;20017;-79
2023/12/30 18:53:25;;;;;;;5.45;2.58;;;2.70;99.90;;;;;;5039126;28;20037;-81
2023/12/30 18:56:03;;;;;;;5.07;2.65;;;2.60;99.90;;;;;;5040130;28;20037;-79
2023/12/30 18:59:03;;;;;;;3.78;2.75;;;2.70;99.90;;;;;;5044830;28;20097;-83
2023/12/30 19:01:29;;;;;;;3.63;2.45;;;2.70;99.90;;;;;;5042069;28;20026;-83
2023/12/30 19:04:01;;;;;;;2.60;2.22;;;2.70;99.90;;;;;;5052184;28;20066;-80
2023/12/30 19:06:28;;;;;;;3.70;2.35;;;2.60;99.90;;;;;;5050434;28;20028;-80
2023/12/30 19:08:54;;;;;;;5.97;3.58;;;2.50;99.90;;;;;;5051343;28;20022;-78
2023/12/30 19:11:21;;;;;;;4.63;2.50;;;2.30;99.90;;;;;;5047740;28;20028;-77
2023/12/30 19:13:47;;;;;;;6.70;3.22;;;2.30;99.90;;;;;;5047185;28;20042;-83
2023/12/30 19:16:58;;;;;;;9.00;4.10;;;2.50;99.90;;;;;;5041380;28;19994;-82
2023/12/30 19:22:58;;;;;;;7.05;4.13;;;2.90;99.90;;;;;;4992706;28;20037;-81
2023/12/30 19:25:28;;;;;;;7.03;4.28;;;2.70;99.90;;;;;;4992069;28;20031;-80
2023/12/30 19:42:09;;;;;;;4.60;3.17;;;2.20;99.90;;;;;;4922512;29;20059;-82
2023/12/30 19:44:41;;;;;;;6.30;3.90;;;2.20;99.90;;;;;;4935384;29;20034;-83
2023/12/30 19:47:13;;;;;;;5.60;3.92;;;2.30;99.90;;;;;;4924370;29;20047;-81
2023/12/30 19:50:24;;;;;;;5.72;3.47;;;2.40;99.90;;;;;;5006895;28;20032;-81
2023/12/30 19:56:36;;;;;;;7.30;4.35;;;2.30;99.90;;;;;;4949178;29;20106;-79
2023/12/30 19:59:08;;;;;;;9.55;6.10;;;2.20;99.90;;;;;;4950234;29;20036;-78
2023/12/30 20:01:45;;;;;;;8.40;5.82;;;2.10;99.90;;;;;;5018131;28;20049;-81
2023/12/30 20:04:11;;;;;;;6.50;4.85;;;2.10;99.90;;;;;;5023680;28;20121;-82
2023/12/30 20:07:13;;;;;;;8.10;4.93;;;2.00;99.90;;;;;;5005943;28;20057;-81
2023/12/30 20:10:28;;;;;;;7.13;5.03;;;2.00;99.90;;;;;;4989558;28;20068;-77
2023/12/30 20:13:56;;;;;;;4.85;3.80;;;2.10;99.90;;;;;;4943791;28;20495;-82
2023/12/30 20:17:36;;;;;;;;;;;;;;;;;;;;;
2023/12/30 20:28:02;;;;;;;9.02;4.65;;;2.40;99.90;;;;;;4901654;29;20039;-79
2023/12/30 20:31:02;;;;;;;8.88;4.10;;;2.20;99.90;;;;;;4876514;29;20037;-78
2023/12/30 20:34:08;;;;;;;6.32;3.45;;;2.30;99.90;;;;;;4881366;29;20057;-80
2023/12/30 20:43:54;;;;;;;8.40;5.43;;;2.20;99.90;;;;;;4860752;29;20044;-81
2023/12/30 20:50:39;;;;;;;10.30;7.22;;;2.30;99.90;;;;;;4852517;29;20097;-75
2023/12/30 21:27:58;;;;;;;5.50;3.53;;;1.40;99.90;;;;;;4796747;30;20524;-81
2023/12/30 21:41:31;;;;;;;4.65;3.47;;;1.60;99.90;;;;;;4750487;30;20044;-81
2023/12/30 21:44:09;;;;;;;6.20;4.93;;;1.60;99.90;;;;;;4780372;29;20038;-75
2023/12/30 21:49:54;;;;;;;12.82;7.30;;;1.60;99.90;;;;;;4840983;29;20119;-75
2023/12/30 21:52:21;;;;;;;9.40;5.78;;;1.70;99.90;;;;;;4957067;28;20277;-80
2023/12/30 21:54:47;;;;;;;9.52;4.82;;;2.10;99.90;;;;;;4997475;28;20499;-82
2023/12/30 21:57:12;;;;;;;9.50;5.35;;;1.90;99.90;;;;;;4996964;28;20014;-82
2023/12/30 21:59:38;;;;;;;9.48;6.32;;;2.10;99.90;;;;;;5010166;28;20060;-80
2023/12/30 22:02:05;;;;;;;13.13;6.75;;;2.00;99.90;;;;;;4999288;28;20027;-82
2023/12/30 22:04:30;;;;;;;14.02;8.30;;;2.20;99.90;;;;;;4998107;28;20110;-78
2023/12/30 22:06:56;;;;;;;10.55;6.00;;;2.30;99.90;;;;;;4990036;28;20211;-78
2023/12/30 22:09:22;;;;;;;9.80;5.75;;;2.40;99.90;;;;;;5003338;28;20014;-76
2023/12/30 22:11:47;;;;;;;14.50;5.32;;;2.40;99.90;;;;;;5007076;28;20131;-75
2023/12/30 22:14:14;;;;;;;5.07;3.35;;;2.50;99.90;;;;;;5022592;28;20018;-84
2023/12/30 22:16:40;;;;;;;3.50;2.47;;;2.70;99.90;;;;;;5008529;28;20093;-79
2023/12/30 22:19:08;;;;;;;5.97;3.17;;;2.90;99.90;;;;;;5009756;28;20053;-76
2023/12/30 22:21:34;;;;;;;4.68;3.30;;;3.10;99.90;;;;;;5000485;28;20022;-80
2023/12/30 22:24:00;;;;;;;3.30;2.85;;;3.20;99.90;;;;;;5003898;28;20026;-81
2023/12/30 22:26:25;;;;;;;5.38;2.53;;;3.20;99.90;;;;;;5007191;28;20445;-77
2023/12/30 22:28:51;;;;;;;6.22;3.13;;;3.20;99.90;;;;;;4998378;28;20657;-79
2023/12/30 22:31:17;;;;;;;3.55;2.50;;;3.10;99.90;;;;;;5003362;28;20053;-82
2023/12/30 22:33:42;;;;;;;2.33;2.13;;;3.00;99.90;;;;;;5009554;28;20042;-77
2023/12/30 22:36:08;;;;;;;5.32;2.63;;;2.90;99.90;;;;;;5010191;28;20042;-80
2023/12/30 22:38:35;;;;;;;6.40;4.65;;;3.00;99.90;;;;;;5000224;28;20395;-80
2023/12/30 22:41:01;;;;;;;8.82;4.15;;;3.00;99.90;;;;;;4997003;28;20014;-75
2023/12/30 22:43:29;;;;;;;5.18;3.33;;;3.00;99.90;;;;;;5004355;28;20023;-77
2023/12/30 22:45:55;;;;;;;3.28;2.55;;;2.90;99.90;;;;;;5001710;28;20106;-82
2023/12/30 22:48:21;;;;;;;3.60;2.67;;;2.80;99.90;;;;;;4998758;28;20035;-78
2023/12/30 22:50:49;;;;;;;3.33;2.80;;;2.70;99.90;;;;;;4993182;28;20549;-80
2023/12/30 22:53:15;;;;;;;6.43;2.75;;;2.60;99.90;;;;;;4995769;28;20030;-74
2023/12/30 22:55:41;;;;;;;3.90;2.53;;;2.70;99.90;;;;;;4994643;28;20045;-79
2023/12/30 22:58:07;;;;;;;7.95;2.75;;;2.80;99.90;;;;;;4993720;28;20565;-76
2023/12/30 23:00:33;;;;;;;4.95;2.63;;;2.70;99.90;;;;;;4995290;28;20426;-76
2023/12/30 23:03:00;;;;;;;4.57;2.60;;;2.80;99.90;;;;;;4996394;28;20495;-75
2023/12/30 23:05:26;;;;;;;4.00;2.45;;;2.90;99.90;;;;;;5010420;28;20566;-80
2023/12/30 23:07:52;;;;;;;3.65;2.78;;;3.00;99.90;;;;;;4991523;28;20042;-78
2023/12/30 23:10:18;;;;;;;3.33;2.63;;;3.10;99.90;;;;;;4998133;28;20081;-80
2023/12/30 23:12:44;;;;;;;2.97;2.58;;;3.10;99.90;;;;;;4999400;28;20046;-79
2023/12/30 23:15:10;;;;;;;3.08;2.45;;;3.10;99.90;;;;;;4993150;28;20026;-79
2023/12/30 23:17:36;;;;;;;2.28;2.08;;;3.20;99.90;;;;;;4992372;28;20092;-78
2023/12/30 23:20:06;;;;;;;4.43;2.50;;;3.20;99.90;;;;;;4994599;28;20032;-75
2023/12/30 23:22:32;;;;;;;4.55;2.55;;;3.20;99.90;;;;;;4991580;28;20031;-80
2023/12/30 23:25:24;;;;;;;4.03;2.72;;;3.20;99.90;;;;;;4992559;28;20136;-79
2023/12/30 23:27:50;;;;;;;3.58;2.80;;;3.20;99.90;;;;;;4995429;28;20062;-83
2023/12/30 23:30:15;;;;;;;2.65;2.45;;;3.20;99.90;;;;;;4994022;28;20015;-75
2023/12/30 23:32:44;;;;;;;4.20;2.25;;;3.10;99.90;;;;;;5002077;28;20112;-78
2023/12/30 23:35:13;;;;;;;2.50;2.30;;;3.10;99.90;;;;;;5007477;28;20018;-77
2023/12/30 23:37:42;;;;;;;3.20;2.75;;;3.00;99.90;;;;;;5025746;28;20281;-83
2023/12/30 23:40:08;;;;;;;2.50;2.20;;;3.10;99.90;;;;;;5040646;28;20042;-79